sensor_id;sensor_type;location;lat;lon;timestamp;temperature;humidity
14985;DHT22;7588;62.368;25.902;2023-04-15T00:01:19;-4.00;91.00
14985;DHT22;7588;62.368;25.902;2023-04-15T00:03:45;-4.10;91.30
14985;DHT22;7588;62.368;25.902;2023-04-15T00:06:12;-4.30;91.90
14985;DHT22;7588;62.368;25.902;2023-04-15T00:08:38;-4.30;92.80
14985;DHT22;7588;62.368;25.902;2023-04-15T00:11:04;-4.40;93.60
14985;DHT22;7588;62.368;25.902;2023-04-15T00:13:30;-4.30;93.70
14985;DHT22;7588;62.368;25.902;2023-04-15T00:15:58;-4.30;94.40
14985;DHT22;7588;62.368;25.902;2023-04-15T00:18:24;-4.30;95.00
14985;DHT22;7588;62.368;25.902;2023-04-15T00:20:50;-4.40;94.90
14985;DHT22;7588;62.368;25.902;2023-04-15T00:23:15;-4.40;94.90
14985;DHT22;7588;62.368;25.902;2023-04-15T00:25:41;-4.40;93.40
14985;DHT22;7588;62.368;25.902;2023-04-15T00:28:07;-4.30;91.20
14985;DHT22;7588;62.368;25.902;2023-04-15T00:30:33;-4.30;91.10
14985;DHT22;7588;62.368;25.902;2023-04-15T00:32:59;-4.20;91.20
14985;DHT22;7588;62.368;25.902;2023-04-15T00:35:26;-4.20;91.50
14985;DHT22;7588;62.368;25.902;2023-04-15T00:37:52;-4.30;92.40
14985;DHT22;7588;62.368;25.902;2023-04-15T00:40:20;-4.30;92.00
14985;DHT22;7588;62.368;25.902;2023-04-15T00:42:46;-4.30;91.10
14985;DHT22;7588;62.368;25.902;2023-04-15T00:45:12;-4.30;90.40
14985;DHT22;7588;62.368;25.902;2023-04-15T00:47:40;-4.20;89.50
14985;DHT22;7588;62.368;25.902;2023-04-15T00:50:07;-4.20;90.40
14985;DHT22;7588;62.368;25.902;2023-04-15T00:52:33;-4.30;90.10
14985;DHT22;7588;62.368;25.902;2023-04-15T00:54:59;-4.30;90.80
14985;DHT22;7588;62.368;25.902;2023-04-15T00:57:27;-4.40;91.40
14985;DHT22;7588;62.368;25.902;2023-04-15T00:59:55;-4.40;90.90
14985;DHT22;7588;62.368;25.902;2023-04-15T01:02:21;-4.40;90.40
14985;DHT22;7588;62.368;25.902;2023-04-15T01:04:48;-4.50;91.00
14985;DHT22;7588;62.368;25.902;2023-04-15T01:07:14;-4.60;91.00
14985;DHT22;7588;62.368;25.902;2023-04-15T01:09:40;-4.60;91.70
14985;DHT22;7588;62.368;25.902;2023-04-15T01:12:07;-4.60;91.90
14985;DHT22;7588;62.368;25.902;2023-04-15T01:14:34;-4.70;93.20
14985;DHT22;7588;62.368;25.902;2023-04-15T01:17:00;-4.80;93.60
14985;DHT22;7588;62.368;25.902;2023-04-15T01:19:27;-4.90;93.70
14985;DHT22;7588;62.368;25.902;2023-04-15T01:21:53;-4.90;93.90
14985;DHT22;7588;62.368;25.902;2023-04-15T01:24:19;-5.00;93.80
14985;DHT22;7588;62.368;25.902;2023-04-15T01:26:46;-5.00;95.90
14985;DHT22;7588;62.368;25.902;2023-04-15T01:29:13;-5.10;98.10
14985;DHT22;7588;62.368;25.902;2023-04-15T01:31:40;-5.20;98.20
14985;DHT22;7588;62.368;25.902;2023-04-15T01:34:05;-5.30;99.10
14985;DHT22;7588;62.368;25.902;2023-04-15T01:36:31;-5.40;98.80
14985;DHT22;7588;62.368;25.902;2023-04-15T01:38:57;-5.40;99.40
14985;DHT22;7588;62.368;25.902;2023-04-15T01:41:27;-5.40;98.90
14985;DHT22;7588;62.368;25.902;2023-04-15T01:43:53;-5.40;98.50
14985;DHT22;7588;62.368;25.902;2023-04-15T01:46:19;-5.40;98.80
14985;DHT22;7588;62.368;25.902;2023-04-15T01:48:45;-5.40;98.50
14985;DHT22;7588;62.368;25.902;2023-04-15T01:51:11;-5.40;98.20
14985;DHT22;7588;62.368;25.902;2023-04-15T01:53:37;-5.40;98.90
14985;DHT22;7588;62.368;25.902;2023-04-15T01:56:03;-5.40;99.40
14985;DHT22;7588;62.368;25.902;2023-04-15T01:58:29;-5.50;99.90
14985;DHT22;7588;62.368;25.902;2023-04-15T02:00:55;-5.50;99.90
14985;DHT22;7588;62.368;25.902;2023-04-15T02:03:21;-5.60;99.90
14985;DHT22;7588;62.368;25.902;2023-04-15T02:05:47;-5.70;99.90
14985;DHT22;7588;62.368;25.902;2023-04-15T02:08:13;-5.80;99.90
14985;DHT22;7588;62.368;25.902;2023-04-15T02:10:39;-5.90;99.90
14985;DHT22;7588;62.368;25.902;2023-04-15T02:13:05;-5.90;99.90
14985;DHT22;7588;62.368;25.902;2023-04-15T02:15:30;-6.00;99.90
14985;DHT22;7588;62.368;25.902;2023-04-15T02:17:57;-6.00;99.90
14985;DHT22;7588;62.368;25.902;2023-04-15T02:20:25;-5.90;99.90
14985;DHT22;7588;62.368;25.902;2023-04-15T02:22:51;-5.90;99.90
14985;DHT22;7588;62.368;25.902;2023-04-15T02:25:16;-5.90;99.90
14985;DHT22;7588;62.368;25.902;2023-04-15T02:27:42;-5.90;99.90
14985;DHT22;7588;62.368;25.902;2023-04-15T02:30:11;-5.80;99.90
14985;DHT22;7588;62.368;25.902;2023-04-15T02:32:37;-5.80;99.90
14985;DHT22;7588;62.368;25.902;2023-04-15T02:35:04;-5.90;99.90
14985;DHT22;7588;62.368;25.902;2023-04-15T02:37:31;-5.90;99.90
14985;DHT22;7588;62.368;25.902;2023-04-15T02:39:56;-5.90;99.90
14985;DHT22;7588;62.368;25.902;2023-04-15T02:42:22;-5.90;99.90
14985;DHT22;7588;62.368;25.902;2023-04-15T02:44:52;-5.90;99.90
14985;DHT22;7588;62.368;25.902;2023-04-15T02:47:19;-5.90;99.90
14985;DHT22;7588;62.368;25.902;2023-04-15T02:49:45;-5.90;99.90
14985;DHT22;7588;62.368;25.902;2023-04-15T02:52:11;-5.90;99.90
14985;DHT22;7588;62.368;25.902;2023-04-15T02:54:36;-5.90;99.90
14985;DHT22;7588;62.368;25.902;2023-04-15T02:57:02;-5.90;99.90
14985;DHT22;7588;62.368;25.902;2023-04-15T02:59:31;-5.80;99.90
14985;DHT22;7588;62.368;25.902;2023-04-15T03:01:56;-5.80;99.90
14985;DHT22;7588;62.368;25.902;2023-04-15T03:04:25;-5.80;99.90
14985;DHT22;7588;62.368;25.902;2023-04-15T03:06:51;-5.80;99.90
14985;DHT22;7588;62.368;25.902;2023-04-15T03:09:17;-5.80;99.90
14985;DHT22;7588;62.368;25.902;2023-04-15T03:11:42;-5.70;99.90
14985;DHT22;7588;62.368;25.902;2023-04-15T03:14:08;-5.70;99.90
14985;DHT22;7588;62.368;25.902;2023-04-15T03:16:34;-5.70;99.90
14985;DHT22;7588;62.368;25.902;2023-04-15T03:19:00;-5.70;99.90
14985;DHT22;7588;62.368;25.902;2023-04-15T03:21:26;-5.60;99.90
14985;DHT22;7588;62.368;25.902;2023-04-15T03:23:52;-5.60;99.90
14985;DHT22;7588;62.368;25.902;2023-04-15T03:26:30;-5.80;99.90
14985;DHT22;7588;62.368;25.902;2023-04-15T03:28:56;-5.70;99.90
14985;DHT22;7588;62.368;25.902;2023-04-15T03:31:22;-5.70;99.90
14985;DHT22;7588;62.368;25.902;2023-04-15T03:33:48;-5.70;99.90
14985;DHT22;7588;62.368;25.902;2023-04-15T03:36:14;-5.60;99.90
14985;DHT22;7588;62.368;25.902;2023-04-15T03:38:41;-5.60;99.90
14985;DHT22;7588;62.368;25.902;2023-04-15T03:41:07;-5.50;99.90
14985;DHT22;7588;62.368;25.902;2023-04-15T03:43:33;-5.50;99.90
14985;DHT22;7588;62.368;25.902;2023-04-15T03:46:00;-5.50;99.90
14985;DHT22;7588;62.368;25.902;2023-04-15T03:48:26;-5.50;99.90
14985;DHT22;7588;62.368;25.902;2023-04-15T03:50:51;-5.50;99.90
14985;DHT22;7588;62.368;25.902;2023-04-15T03:53:17;-5.40;99.90
14985;DHT22;7588;62.368;25.902;2023-04-15T03:55:43;-5.40;99.90
14985;DHT22;7588;62.368;25.902;2023-04-15T03:58:09;-5.30;99.90
14985;DHT22;7588;62.368;25.902;2023-04-15T04:00:37;-5.20;99.90
14985;DHT22;7588;62.368;25.902;2023-04-15T04:03:03;-5.20;99.90
14985;DHT22;7588;62.368;25.902;2023-04-15T04:05:29;-5.10;99.90
14985;DHT22;7588;62.368;25.902;2023-04-15T04:07:55;-5.00;99.90
14985;DHT22;7588;62.368;25.902;2023-04-15T04:10:21;-4.90;99.90
14985;DHT22;7588;62.368;25.902;2023-04-15T04:12:46;-4.80;99.90
14985;DHT22;7588;62.368;25.902;2023-04-15T04:15:12;-4.70;99.90
14985;DHT22;7588;62.368;25.902;2023-04-15T04:17:38;-4.60;99.90
14985;DHT22;7588;62.368;25.902;2023-04-15T04:20:04;-4.40;99.90
14985;DHT22;7588;62.368;25.902;2023-04-15T04:22:30;-4.30;98.90
14985;DHT22;7588;62.368;25.902;2023-04-15T04:24:56;-4.10;98.40
14985;DHT22;7588;62.368;25.902;2023-04-15T04:27:24;-3.90;98.20
14985;DHT22;7588;62.368;25.902;2023-04-15T04:29:49;-3.70;97.60
14985;DHT22;7588;62.368;25.902;2023-04-15T04:32:15;-3.60;96.60
14985;DHT22;7588;62.368;25.902;2023-04-15T04:34:41;-3.50;96.50
14985;DHT22;7588;62.368;25.902;2023-04-15T04:37:07;-3.30;95.40
14985;DHT22;7588;62.368;25.902;2023-04-15T04:39:32;-3.20;94.80
14985;DHT22;7588;62.368;25.902;2023-04-15T04:41:58;-3.10;94.00
14985;DHT22;7588;62.368;25.902;2023-04-15T04:44:23;-2.80;93.60
14985;DHT22;7588;62.368;25.902;2023-04-15T04:46:49;-2.70;93.00
14985;DHT22;7588;62.368;25.902;2023-04-15T04:49:15;-2.60;92.90
14985;DHT22;7588;62.368;25.902;2023-04-15T04:51:40;-2.50;91.80
14985;DHT22;7588;62.368;25.902;2023-04-15T04:54:06;-2.30;91.30
14985;DHT22;7588;62.368;25.902;2023-04-15T04:56:32;-2.30;91.30
14985;DHT22;7588;62.368;25.902;2023-04-15T04:58:59;-2.20;89.10
14985;DHT22;7588;62.368;25.902;2023-04-15T05:01:25;-2.00;88.60
14985;DHT22;7588;62.368;25.902;2023-04-15T05:03:52;-2.00;88.90
14985;DHT22;7588;62.368;25.902;2023-04-15T05:06:17;-1.90;89.80
14985;DHT22;7588;62.368;25.902;2023-04-15T05:08:43;-1.80;87.40
14985;DHT22;7588;62.368;25.902;2023-04-15T05:11:09;-1.80;86.60
14985;DHT22;7588;62.368;25.902;2023-04-15T05:13:35;-1.60;86.70
14985;DHT22;7588;62.368;25.902;2023-04-15T05:16:05;-1.40;85.00
14985;DHT22;7588;62.368;25.902;2023-04-15T05:18:30;-1.30;86.10
14985;DHT22;7588;62.368;25.902;2023-04-15T05:20:56;-1.20;85.30
14985;DHT22;7588;62.368;25.902;2023-04-15T05:23:22;-1.10;83.40
14985;DHT22;7588;62.368;25.902;2023-04-15T05:25:48;-1.00;81.70
14985;DHT22;7588;62.368;25.902;2023-04-15T05:28:14;-0.90;83.10
14985;DHT22;7588;62.368;25.902;2023-04-15T05:30:40;-0.80;81.20
14985;DHT22;7588;62.368;25.902;2023-04-15T05:33:06;-0.70;80.80
14985;DHT22;7588;62.368;25.902;2023-04-15T05:35:32;-0.70;80.50
14985;DHT22;7588;62.368;25.902;2023-04-15T05:37:57;-0.70;80.70
14985;DHT22;7588;62.368;25.902;2023-04-15T05:40:23;-0.60;79.20
14985;DHT22;7588;62.368;25.902;2023-04-15T05:42:48;-0.50;79.00
14985;DHT22;7588;62.368;25.902;2023-04-15T05:45:14;-0.30;77.80
14985;DHT22;7588;62.368;25.902;2023-04-15T05:47:40;-0.20;78.60
14985;DHT22;7588;62.368;25.902;2023-04-15T05:50:06;-0.10;77.20
14985;DHT22;7588;62.368;25.902;2023-04-15T05:52:32;-0.20;77.80
14985;DHT22;7588;62.368;25.902;2023-04-15T05:54:58;-0.10;77.60
14985;DHT22;7588;62.368;25.902;2023-04-15T05:57:24;0.00;78.80
14985;DHT22;7588;62.368;25.902;2023-04-15T05:59:49;0.00;76.30
14985;DHT22;7588;62.368;25.902;2023-04-15T06:02:17;0.20;76.30
14985;DHT22;7588;62.368;25.902;2023-04-15T06:04:43;0.10;76.80
14985;DHT22;7588;62.368;25.902;2023-04-15T06:07:09;0.20;77.40
14985;DHT22;7588;62.368;25.902;2023-04-15T06:09:35;0.30;75.10
14985;DHT22;7588;62.368;25.902;2023-04-15T06:12:01;0.40;77.40
14985;DHT22;7588;62.368;25.902;2023-04-15T06:14:27;0.40;74.20
14985;DHT22;7588;62.368;25.902;2023-04-15T06:16:53;0.50;76.10
14985;DHT22;7588;62.368;25.902;2023-04-15T06:19:18;0.60;75.80
14985;DHT22;7588;62.368;25.902;2023-04-15T06:21:45;0.70;75.00
14985;DHT22;7588;62.368;25.902;2023-04-15T06:24:11;0.80;75.30
14985;DHT22;7588;62.368;25.902;2023-04-15T06:26:36;0.90;74.30
14985;DHT22;7588;62.368;25.902;2023-04-15T06:29:02;0.90;73.80
14985;DHT22;7588;62.368;25.902;2023-04-15T06:31:28;1.00;74.60
14985;DHT22;7588;62.368;25.902;2023-04-15T06:33:54;1.10;74.00
14985;DHT22;7588;62.368;25.902;2023-04-15T06:36:20;1.10;73.40
14985;DHT22;7588;62.368;25.902;2023-04-15T06:38:46;1.20;72.60
14985;DHT22;7588;62.368;25.902;2023-04-15T06:41:11;1.20;72.60
14985;DHT22;7588;62.368;25.902;2023-04-15T06:43:38;1.30;73.60
14985;DHT22;7588;62.368;25.902;2023-04-15T06:46:03;1.40;71.90
14985;DHT22;7588;62.368;25.902;2023-04-15T06:48:30;1.50;73.20
14985;DHT22;7588;62.368;25.902;2023-04-15T06:50:55;1.60;71.60
14985;DHT22;7588;62.368;25.902;2023-04-15T06:53:24;2.10;71.80
14985;DHT22;7588;62.368;25.902;2023-04-15T06:55:50;3.20;70.70
14985;DHT22;7588;62.368;25.902;2023-04-15T06:58:15;4.40;64.70
14985;DHT22;7588;62.368;25.902;2023-04-15T07:00:41;5.10;62.70
14985;DHT22;7588;62.368;25.902;2023-04-15T07:03:07;5.60;59.50
14985;DHT22;7588;62.368;25.902;2023-04-15T07:05:35;6.20;58.00
14985;DHT22;7588;62.368;25.902;2023-04-15T07:08:01;6.60;57.30
14985;DHT22;7588;62.368;25.902;2023-04-15T07:10:26;6.80;56.80
14985;DHT22;7588;62.368;25.902;2023-04-15T07:12:52;7.20;56.00
14985;DHT22;7588;62.368;25.902;2023-04-15T07:15:18;7.00;56.20
14985;DHT22;7588;62.368;25.902;2023-04-15T07:17:44;7.40;55.50
14985;DHT22;7588;62.368;25.902;2023-04-15T07:20:10;7.90;53.20
14985;DHT22;7588;62.368;25.902;2023-04-15T07:22:35;8.00;53.80
14985;DHT22;7588;62.368;25.902;2023-04-15T07:25:01;8.20;54.60
14985;DHT22;7588;62.368;25.902;2023-04-15T07:27:27;8.40;54.30
14985;DHT22;7588;62.368;25.902;2023-04-15T07:29:52;8.60;53.10
14985;DHT22;7588;62.368;25.902;2023-04-15T07:32:18;8.80;51.00
14985;DHT22;7588;62.368;25.902;2023-04-15T07:34:44;9.00;51.00
14985;DHT22;7588;62.368;25.902;2023-04-15T07:37:10;9.00;50.70
14985;DHT22;7588;62.368;25.902;2023-04-15T07:39:36;8.90;50.30
14985;DHT22;7588;62.368;25.902;2023-04-15T07:42:02;8.90;50.70
14985;DHT22;7588;62.368;25.902;2023-04-15T07:44:29;9.00;51.80
14985;DHT22;7588;62.368;25.902;2023-04-15T07:46:55;8.80;48.90
14985;DHT22;7588;62.368;25.902;2023-04-15T07:49:21;8.90;52.40
14985;DHT22;7588;62.368;25.902;2023-04-15T07:51:47;9.30;51.40
14985;DHT22;7588;62.368;25.902;2023-04-15T07:54:14;9.40;50.40
14985;DHT22;7588;62.368;25.902;2023-04-15T07:56:40;9.50;50.80
14985;DHT22;7588;62.368;25.902;2023-04-15T07:59:06;9.70;49.40
14985;DHT22;7588;62.368;25.902;2023-04-15T08:01:32;9.90;50.90
14985;DHT22;7588;62.368;25.902;2023-04-15T08:04:00;10.10;49.70
14985;DHT22;7588;62.368;25.902;2023-04-15T08:06:26;10.40;50.00
14985;DHT22;7588;62.368;25.902;2023-04-15T08:08:52;10.40;49.50
14985;DHT22;7588;62.368;25.902;2023-04-15T08:11:19;10.70;47.80
14985;DHT22;7588;62.368;25.902;2023-04-15T08:13:46;10.30;46.20
14985;DHT22;7588;62.368;25.902;2023-04-15T08:16:19;10.40;47.60
14985;DHT22;7588;62.368;25.902;2023-04-15T08:18:47;10.30;48.00
14985;DHT22;7588;62.368;25.902;2023-04-15T08:21:13;10.50;48.70
14985;DHT22;7588;62.368;25.902;2023-04-15T08:23:39;10.30;45.10
14985;DHT22;7588;62.368;25.902;2023-04-15T08:26:05;10.40;47.90
14985;DHT22;7588;62.368;25.902;2023-04-15T08:28:31;10.70;48.20
14985;DHT22;7588;62.368;25.902;2023-04-15T08:30:56;10.80;46.40
14985;DHT22;7588;62.368;25.902;2023-04-15T08:33:22;10.90;46.40
14985;DHT22;7588;62.368;25.902;2023-04-15T08:35:48;10.90;46.30
14985;DHT22;7588;62.368;25.902;2023-04-15T08:38:14;11.00;49.20
14985;DHT22;7588;62.368;25.902;2023-04-15T08:40:44;11.10;43.70
14985;DHT22;7588;62.368;25.902;2023-04-15T08:43:14;11.20;45.60
14985;DHT22;7588;62.368;25.902;2023-04-15T08:45:43;11.40;46.50
14985;DHT22;7588;62.368;25.902;2023-04-15T08:48:14;11.40;46.30
14985;DHT22;7588;62.368;25.902;2023-04-15T08:50:43;11.60;45.90
14985;DHT22;7588;62.368;25.902;2023-04-15T08:53:10;11.70;43.60
14985;DHT22;7588;62.368;25.902;2023-04-15T08:55:41;11.60;43.60
14985;DHT22;7588;62.368;25.902;2023-04-15T08:58:08;11.60;45.20
14985;DHT22;7588;62.368;25.902;2023-04-15T09:00:35;11.80;44.90
14985;DHT22;7588;62.368;25.902;2023-04-15T09:03:01;12.20;44.70
14985;DHT22;7588;62.368;25.902;2023-04-15T09:05:26;12.00;42.20
14985;DHT22;7588;62.368;25.902;2023-04-15T09:07:55;11.80;44.40
14985;DHT22;7588;62.368;25.902;2023-04-15T09:10:21;12.20;44.10
14985;DHT22;7588;62.368;25.902;2023-04-15T09:12:46;12.30;45.50
14985;DHT22;7588;62.368;25.902;2023-04-15T09:15:12;12.60;45.10
14985;DHT22;7588;62.368;25.902;2023-04-15T09:17:42;12.90;43.90
14985;DHT22;7588;62.368;25.902;2023-04-15T09:20:13;13.20;42.70
14985;DHT22;7588;62.368;25.902;2023-04-15T09:22:40;13.10;41.40
14985;DHT22;7588;62.368;25.902;2023-04-15T09:25:27;13.00;42.00
14985;DHT22;7588;62.368;25.902;2023-04-15T09:27:59;12.80;40.90
14985;DHT22;7588;62.368;25.902;2023-04-15T09:30:28;12.70;41.90
14985;DHT22;7588;62.368;25.902;2023-04-15T09:32:59;12.90;41.90
14985;DHT22;7588;62.368;25.902;2023-04-15T09:35:26;13.00;40.20
14985;DHT22;7588;62.368;25.902;2023-04-15T09:37:53;12.40;40.60
14985;DHT22;7588;62.368;25.902;2023-04-15T09:40:39;12.30;43.40
14985;DHT22;7588;62.368;25.902;2023-04-15T09:43:06;12.10;40.60
14985;DHT22;7588;62.368;25.902;2023-04-15T09:45:32;12.20;40.60
14985;DHT22;7588;62.368;25.902;2023-04-15T09:48:13;12.00;41.50
14985;DHT22;7588;62.368;25.902;2023-04-15T09:50:41;12.20;43.00
14985;DHT22;7588;62.368;25.902;2023-04-15T09:53:14;12.90;42.10
14985;DHT22;7588;62.368;25.902;2023-04-15T09:55:45;13.30;41.10
14985;DHT22;7588;62.368;25.902;2023-04-15T09:58:21;13.00;38.80
14985;DHT22;7588;62.368;25.902;2023-04-15T10:00:49;12.90;41.70
14985;DHT22;7588;62.368;25.902;2023-04-15T10:03:39;13.00;39.60
14985;DHT22;7588;62.368;25.902;2023-04-15T10:06:07;13.00;41.50
14985;DHT22;7588;62.368;25.902;2023-04-15T10:08:33;13.30;39.30
14985;DHT22;7588;62.368;25.902;2023-04-15T10:11:01;13.20;39.60
14985;DHT22;7588;62.368;25.902;2023-04-15T10:13:29;13.40;40.70
14985;DHT22;7588;62.368;25.902;2023-04-15T10:16:06;13.70;40.00
14985;DHT22;7588;62.368;25.902;2023-04-15T10:18:35;13.90;38.80
14985;DHT22;7588;62.368;25.902;2023-04-15T10:21:03;13.70;38.30
14985;DHT22;7588;62.368;25.902;2023-04-15T10:23:31;13.10;38.30
14985;DHT22;7588;62.368;25.902;2023-04-15T10:25:58;13.00;38.10
14985;DHT22;7588;62.368;25.902;2023-04-15T10:28:24;13.30;38.50
14985;DHT22;7588;62.368;25.902;2023-04-15T10:30:51;13.50;40.10
14985;DHT22;7588;62.368;25.902;2023-04-15T10:33:21;13.60;38.30
14985;DHT22;7588;62.368;25.902;2023-04-15T10:35:48;13.60;37.30
14985;DHT22;7588;62.368;25.902;2023-04-15T10:38:35;13.20;39.40
14985;DHT22;7588;62.368;25.902;2023-04-15T10:41:17;13.10;39.90
14985;DHT22;7588;62.368;25.902;2023-04-15T10:44:00;13.20;38.30
14985;DHT22;7588;62.368;25.902;2023-04-15T10:46:43;13.50;39.00
14985;DHT22;7588;62.368;25.902;2023-04-15T10:49:14;13.60;37.80
14985;DHT22;7588;62.368;25.902;2023-04-15T10:51:50;13.80;37.00
14985;DHT22;7588;62.368;25.902;2023-04-15T10:54:30;13.60;38.70
14985;DHT22;7588;62.368;25.902;2023-04-15T11:02:17;14.00;38.00
14985;DHT22;7588;62.368;25.902;2023-04-15T11:04:57;14.10;38.30
14985;DHT22;7588;62.368;25.902;2023-04-15T11:07:46;14.40;37.20
14985;DHT22;7588;62.368;25.902;2023-04-15T11:12:58;13.50;38.50
14985;DHT22;7588;62.368;25.902;2023-04-15T11:18:09;14.00;38.00
14985;DHT22;7588;62.368;25.902;2023-04-15T11:20:36;14.40;39.40
14985;DHT22;7588;62.368;25.902;2023-04-15T11:23:03;14.50;37.80
14985;DHT22;7588;62.368;25.902;2023-04-15T11:25:31;14.30;37.70
14985;DHT22;7588;62.368;25.902;2023-04-15T11:27:59;14.50;36.30
14985;DHT22;7588;62.368;25.902;2023-04-15T11:30:26;14.40;37.90
14985;DHT22;7588;62.368;25.902;2023-04-15T11:32:56;14.20;37.90
14985;DHT22;7588;62.368;25.902;2023-04-15T11:35:22;14.20;36.80
14985;DHT22;7588;62.368;25.902;2023-04-15T11:37:48;14.50;37.90
14985;DHT22;7588;62.368;25.902;2023-04-15T11:40:15;15.00;38.70
14985;DHT22;7588;62.368;25.902;2023-04-15T11:42:43;15.00;37.70
14985;DHT22;7588;62.368;25.902;2023-04-15T11:45:13;15.20;36.50
14985;DHT22;7588;62.368;25.902;2023-04-15T11:47:40;15.00;37.20
14985;DHT22;7588;62.368;25.902;2023-04-15T11:50:20;15.20;37.30
14985;DHT22;7588;62.368;25.902;2023-04-15T11:53:00;15.20;35.00
14985;DHT22;7588;62.368;25.902;2023-04-15T11:55:27;15.40;37.80
14985;DHT22;7588;62.368;25.902;2023-04-15T11:58:11;15.30;37.10
14985;DHT22;7588;62.368;25.902;2023-04-15T12:00:38;15.10;37.30
14985;DHT22;7588;62.368;25.902;2023-04-15T12:03:18;15.10;35.20
14985;DHT22;7588;62.368;25.902;2023-04-15T12:16:36;15.30;35.90
14985;DHT22;7588;62.368;25.902;2023-04-15T12:19:09;15.20;34.80
14985;DHT22;7588;62.368;25.902;2023-04-15T12:21:37;15.20;36.40
14985;DHT22;7588;62.368;25.902;2023-04-15T12:24:07;15.20;36.30
14985;DHT22;7588;62.368;25.902;2023-04-15T12:26:46;15.10;35.40
14985;DHT22;7588;62.368;25.902;2023-04-15T12:29:14;14.50;35.50
14985;DHT22;7588;62.368;25.902;2023-04-15T12:31:49;14.60;37.50
14985;DHT22;7588;62.368;25.902;2023-04-15T12:34:28;14.90;37.80
14985;DHT22;7588;62.368;25.902;2023-04-15T12:36:55;15.10;36.00
14985;DHT22;7588;62.368;25.902;2023-04-15T12:39:27;15.20;36.60
14985;DHT22;7588;62.368;25.902;2023-04-15T12:41:53;14.60;36.80
14985;DHT22;7588;62.368;25.902;2023-04-15T12:44:22;14.70;36.40
14985;DHT22;7588;62.368;25.902;2023-04-15T12:46:49;14.80;36.30
14985;DHT22;7588;62.368;25.902;2023-04-15T12:49:15;14.60;36.20
14985;DHT22;7588;62.368;25.902;2023-04-15T12:51:44;14.60;39.10
14985;DHT22;7588;62.368;25.902;2023-04-15T12:54:10;14.90;34.50
14985;DHT22;7588;62.368;25.902;2023-04-15T12:56:35;14.80;35.30
14985;DHT22;7588;62.368;25.902;2023-04-15T12:59:01;14.90;37.50
14985;DHT22;7588;62.368;25.902;2023-04-15T13:01:27;14.70;37.40
14985;DHT22;7588;62.368;25.902;2023-04-15T13:03:52;14.70;37.10
14985;DHT22;7588;62.368;25.902;2023-04-15T13:06:18;14.80;37.80
14985;DHT22;7588;62.368;25.902;2023-04-15T13:08:44;14.80;37.50
14985;DHT22;7588;62.368;25.902;2023-04-15T13:11:10;14.90;35.80
14985;DHT22;7588;62.368;25.902;2023-04-15T13:13:36;15.00;36.60
14985;DHT22;7588;62.368;25.902;2023-04-15T13:16:01;14.90;36.50
14985;DHT22;7588;62.368;25.902;2023-04-15T13:18:27;14.60;36.20
14985;DHT22;7588;62.368;25.902;2023-04-15T13:20:53;13.80;35.00
14985;DHT22;7588;62.368;25.902;2023-04-15T13:23:20;13.30;36.30
14985;DHT22;7588;62.368;25.902;2023-04-15T13:25:45;12.40;35.50
14985;DHT22;7588;62.368;25.902;2023-04-15T13:28:11;11.80;37.50
14985;DHT22;7588;62.368;25.902;2023-04-15T13:30:37;11.30;38.20
14985;DHT22;7588;62.368;25.902;2023-04-15T13:33:04;10.80;39.10
14985;DHT22;7588;62.368;25.902;2023-04-15T13:35:31;10.80;39.00
14985;DHT22;7588;62.368;25.902;2023-04-15T13:37:57;10.70;39.80
14985;DHT22;7588;62.368;25.902;2023-04-15T13:40:22;10.70;40.10
14985;DHT22;7588;62.368;25.902;2023-04-15T13:42:48;10.60;40.40
14985;DHT22;7588;62.368;25.902;2023-04-15T13:45:14;10.30;39.10
14985;DHT22;7588;62.368;25.902;2023-04-15T13:47:40;10.10;42.40
14985;DHT22;7588;62.368;25.902;2023-04-15T13:50:06;10.10;41.10
14985;DHT22;7588;62.368;25.902;2023-04-15T13:52:32;10.00;41.60
14985;DHT22;7588;62.368;25.902;2023-04-15T13:54:58;10.00;43.00
14985;DHT22;7588;62.368;25.902;2023-04-15T13:57:24;9.90;44.10
14985;DHT22;7588;62.368;25.902;2023-04-15T13:59:50;9.80;44.70
14985;DHT22;7588;62.368;25.902;2023-04-15T14:02:15;9.60;45.90
14985;DHT22;7588;62.368;25.902;2023-04-15T14:04:41;9.50;45.80
14985;DHT22;7588;62.368;25.902;2023-04-15T14:07:07;9.40;45.30
14985;DHT22;7588;62.368;25.902;2023-04-15T14:09:33;9.30;46.60
14985;DHT22;7588;62.368;25.902;2023-04-15T14:11:59;9.20;46.10
14985;DHT22;7588;62.368;25.902;2023-04-15T14:14:25;9.20;44.80
14985;DHT22;7588;62.368;25.902;2023-04-15T14:16:51;9.10;45.90
14985;DHT22;7588;62.368;25.902;2023-04-15T14:19:17;9.00;46.00
14985;DHT22;7588;62.368;25.902;2023-04-15T14:21:42;9.00;46.80
14985;DHT22;7588;62.368;25.902;2023-04-15T14:24:08;8.90;46.10
14985;DHT22;7588;62.368;25.902;2023-04-15T14:26:34;8.80;46.40
14985;DHT22;7588;62.368;25.902;2023-04-15T14:29:00;8.80;46.50
14985;DHT22;7588;62.368;25.902;2023-04-15T14:31:25;8.70;46.80
14985;DHT22;7588;62.368;25.902;2023-04-15T14:33:51;8.70;46.20
14985;DHT22;7588;62.368;25.902;2023-04-15T14:36:17;8.60;46.10
14985;DHT22;7588;62.368;25.902;2023-04-15T14:38:42;8.60;46.60
14985;DHT22;7588;62.368;25.902;2023-04-15T14:41:08;8.60;46.00
14985;DHT22;7588;62.368;25.902;2023-04-15T14:43:36;8.60;47.90
14985;DHT22;7588;62.368;25.902;2023-04-15T14:46:02;8.60;48.10
14985;DHT22;7588;62.368;25.902;2023-04-15T14:48:30;8.50;47.30
14985;DHT22;7588;62.368;25.902;2023-04-15T14:50:56;8.50;47.20
14985;DHT22;7588;62.368;25.902;2023-04-15T14:53:21;8.50;47.50
14985;DHT22;7588;62.368;25.902;2023-04-15T14:55:47;8.40;47.10
14985;DHT22;7588;62.368;25.902;2023-04-15T14:58:13;8.40;47.20
14985;DHT22;7588;62.368;25.902;2023-04-15T15:00:38;8.30;47.70
14985;DHT22;7588;62.368;25.902;2023-04-15T15:03:08;8.40;48.10
14985;DHT22;7588;62.368;25.902;2023-04-15T15:05:40;8.40;47.90
14985;DHT22;7588;62.368;25.902;2023-04-15T15:08:07;8.30;47.90
14985;DHT22;7588;62.368;25.902;2023-04-15T15:10:34;8.30;48.00
14985;DHT22;7588;62.368;25.902;2023-04-15T15:13:04;8.30;47.60
14985;DHT22;7588;62.368;25.902;2023-04-15T15:15:31;8.50;45.30
14985;DHT22;7588;62.368;25.902;2023-04-15T15:17:57;8.60;44.80
14985;DHT22;7588;62.368;25.902;2023-04-15T15:20:24;8.70;44.20
14985;DHT22;7588;62.368;25.902;2023-04-15T15:22:50;8.60;46.10
14985;DHT22;7588;62.368;25.902;2023-04-15T15:25:15;8.60;45.70
14985;DHT22;7588;62.368;25.902;2023-04-15T15:27:41;8.80;45.90
14985;DHT22;7588;62.368;25.902;2023-04-15T15:30:07;8.80;45.90
14985;DHT22;7588;62.368;25.902;2023-04-15T15:32:33;8.90;46.90
14985;DHT22;7588;62.368;25.902;2023-04-15T15:34:59;8.80;46.80
14985;DHT22;7588;62.368;25.902;2023-04-15T15:37:25;8.70;48.00
14985;DHT22;7588;62.368;25.902;2023-04-15T15:39:51;8.60;46.80
14985;DHT22;7588;62.368;25.902;2023-04-15T15:42:21;8.70;48.00
14985;DHT22;7588;62.368;25.902;2023-04-15T15:44:46;8.90;47.60
14985;DHT22;7588;62.368;25.902;2023-04-15T15:47:14;9.20;46.90
14985;DHT22;7588;62.368;25.902;2023-04-15T15:49:40;9.30;46.70
14985;DHT22;7588;62.368;25.902;2023-04-15T15:52:06;9.50;45.60
14985;DHT22;7588;62.368;25.902;2023-04-15T15:54:32;9.50;45.00
14985;DHT22;7588;62.368;25.902;2023-04-15T15:56:58;9.40;45.10